sensor_id;sensor_type;location;lat;lon;timestamp;pressure;altitude;pressure_sealevel;temperature;humidity
12897;BME280;6516;35.028;32.372;2023-05-08T00:00:07;99885.78;;;15.52;100.00
12897;BME280;6516;35.028;32.372;2023-05-08T00:02:35;99879.59;;;15.51;100.00
12897;BME280;6516;35.028;32.372;2023-05-08T00:05:03;99882.66;;;15.62;100.00
12897;BME280;6516;35.028;32.372;2023-05-08T00:07:34;99880.19;;;15.58;99.96
12897;BME280;6516;35.028;32.372;2023-05-08T00:10:03;99876.88;;;15.53;99.44
12897;BME280;6516;35.028;32.372;2023-05-08T00:12:31;99881.47;;;15.49;99.38
12897;BME280;6516;35.028;32.372;2023-05-08T00:14:59;99873.44;;;15.51;99.46
12897;BME280;6516;35.028;32.372;2023-05-08T00:17:27;99870.91;;;15.48;99.68
12897;BME280;6516;35.028;32.372;2023-05-08T00:19:55;99875.66;;;15.40;100.00
12897;BME280;6516;35.028;32.372;2023-05-08T00:22:23;99873.22;;;15.35;100.00
12897;BME280;6516;35.028;32.372;2023-05-08T00:24:52;99872.06;;;15.41;100.00
12897;BME280;6516;35.028;32.372;2023-05-08T00:27:20;99874.59;;;15.44;99.59
12897;BME280;6516;35.028;32.372;2023-05-08T00:29:47;99872.06;;;15.41;99.80
12897;BME280;6516;35.028;32.372;2023-05-08T00:32:15;99868.09;;;15.29;100.00
12897;BME280;6516;35.028;32.372;2023-05-08T00:34:43;99875.44;;;15.23;100.00
12897;BME280;6516;35.028;32.372;2023-05-08T00:37:11;99874.72;;;15.19;100.00
12897;BME280;6516;35.028;32.372;2023-05-08T00:39:39;99875.34;;;15.26;100.00
12897;BME280;6516;35.028;32.372;2023-05-08T00:42:08;99874.66;;;15.21;100.00
12897;BME280;6516;35.028;32.372;2023-05-08T00:44:36;99871.03;;;15.23;100.00
12897;BME280;6516;35.028;32.372;2023-05-08T00:47:05;99868.25;;;15.05;100.00
12897;BME280;6516;35.028;32.372;2023-05-08T00:49:33;99865.16;;;14.94;100.00
12897;BME280;6516;35.028;32.372;2023-05-08T00:52:03;99866.31;;;14.87;99.72
12897;BME280;6516;35.028;32.372;2023-05-08T00:54:33;99867.41;;;14.83;99.06
12897;BME280;6516;35.028;32.372;2023-05-08T00:57:03;99865.31;;;14.68;100.00
12897;BME280;6516;35.028;32.372;2023-05-08T00:59:35;99866.44;;;14.62;100.00
12897;BME280;6516;35.028;32.372;2023-05-08T01:02:03;99865.97;;;14.51;100.00
12897;BME280;6516;35.028;32.372;2023-05-08T01:04:32;99862.41;;;14.52;100.00
12897;BME280;6516;35.028;32.372;2023-05-08T01:07:01;99868.81;;;14.47;100.00
12897;BME280;6516;35.028;32.372;2023-05-08T01:09:29;99867.06;;;14.46;100.00
12897;BME280;6516;35.028;32.372;2023-05-08T01:12:05;99861.50;;;14.53;100.00
12897;BME280;6516;35.028;32.372;2023-05-08T01:14:52;99866.72;;;14.55;100.00
12897;BME280;6516;35.028;32.372;2023-05-08T01:17:31;99864.31;;;14.49;100.00
12897;BME280;6516;35.028;32.372;2023-05-08T01:20:17;99863.38;;;14.50;100.00
12897;BME280;6516;35.028;32.372;2023-05-08T01:23:14;99856.25;;;14.52;100.00
12897;BME280;6516;35.028;32.372;2023-05-08T01:33:14;99852.47;;;14.57;100.00
12897;BME280;6516;35.028;32.372;2023-05-08T01:35:50;99863.72;;;14.64;100.00
12897;BME280;6516;35.028;32.372;2023-05-08T01:38:29;99848.09;;;14.35;100.00
12897;BME280;6516;35.028;32.372;2023-05-08T01:41:04;99853.81;;;14.46;100.00
12897;BME280;6516;35.028;32.372;2023-05-08T01:43:43;99857.88;;;14.33;100.00
12897;BME280;6516;35.028;32.372;2023-05-08T01:46:18;99853.72;;;14.26;100.00
12897;BME280;6516;35.028;32.372;2023-05-08T01:48:55;99855.22;;;14.33;100.00
12897;BME280;6516;35.028;32.372;2023-05-08T01:51:27;99858.31;;;14.44;100.00
12897;BME280;6516;35.028;32.372;2023-05-08T01:54:05;99850.19;;;14.48;100.00
12897;BME280;6516;35.028;32.372;2023-05-08T01:56:36;99847.47;;;14.50;100.00
12897;BME280;6516;35.028;32.372;2023-05-08T01:59:06;99852.16;;;14.43;100.00
12897;BME280;6516;35.028;32.372;2023-05-08T02:01:37;99850.78;;;14.33;100.00
12897;BME280;6516;35.028;32.372;2023-05-08T02:04:09;99846.13;;;14.15;100.00
12897;BME280;6516;35.028;32.372;2023-05-08T02:06:38;99851.47;;;14.14;100.00
12897;BME280;6516;35.028;32.372;2023-05-08T02:09:08;99841.03;;;14.11;100.00
12897;BME280;6516;35.028;32.372;2023-05-08T02:11:37;99851.25;;;14.21;100.00
12897;BME280;6516;35.028;32.372;2023-05-08T02:14:06;99847.16;;;14.36;100.00
12897;BME280;6516;35.028;32.372;2023-05-08T02:16:36;99853.13;;;14.41;100.00
12897;BME280;6516;35.028;32.372;2023-05-08T02:19:04;99857.59;;;14.40;100.00
12897;BME280;6516;35.028;32.372;2023-05-08T02:21:36;99851.13;;;14.47;100.00
12897;BME280;6516;35.028;32.372;2023-05-08T02:24:05;99855.72;;;14.42;100.00
12897;BME280;6516;35.028;32.372;2023-05-08T02:26:35;99855.69;;;14.44;100.00
12897;BME280;6516;35.028;32.372;2023-05-08T02:29:05;99855.09;;;14.36;100.00
12897;BME280;6516;35.028;32.372;2023-05-08T02:31:33;99849.66;;;14.40;100.00
12897;BME280;6516;35.028;32.372;2023-05-08T02:34:03;99850.69;;;14.36;100.00
12897;BME280;6516;35.028;32.372;2023-05-08T02:36:33;99854.59;;;14.26;100.00
12897;BME280;6516;35.028;32.372;2023-05-08T02:39:02;99852.75;;;14.28;100.00
12897;BME280;6516;35.028;32.372;2023-05-08T02:41:31;99853.38;;;14.35;100.00
12897;BME280;6516;35.028;32.372;2023-05-08T02:44:00;99862.59;;;14.48;100.00
12897;BME280;6516;35.028;32.372;2023-05-08T02:46:37;99862.31;;;14.32;100.00
12897;BME280;6516;35.028;32.372;2023-05-08T02:49:19;99861.22;;;14.38;100.00
12897;BME280;6516;35.028;32.372;2023-05-08T02:51:59;99864.13;;;14.30;100.00
12897;BME280;6516;35.028;32.372;2023-05-08T02:54:36;99859.03;;;14.26;100.00
12897;BME280;6516;35.028;32.372;2023-05-08T02:57:14;99861.66;;;14.26;100.00
12897;BME280;6516;35.028;32.372;2023-05-08T02:59:55;99864.38;;;14.24;100.00
12897;BME280;6516;35.028;32.372;2023-05-08T03:02:31;99859.22;;;14.21;100.00
12897;BME280;6516;35.028;32.372;2023-05-08T03:05:07;99863.56;;;14.22;100.00
12897;BME280;6516;35.028;32.372;2023-05-08T03:07:42;99867.94;;;14.23;100.00
12897;BME280;6516;35.028;32.372;2023-05-08T03:10:13;99864.59;;;14.41;100.00
12897;BME280;6516;35.028;32.372;2023-05-08T03:12:45;99866.03;;;14.50;100.00
12897;BME280;6516;35.028;32.372;2023-05-08T03:15:20;99864.38;;;14.47;100.00
12897;BME280;6516;35.028;32.372;2023-05-08T03:17:53;99864.38;;;14.47;100.00
12897;BME280;6516;35.028;32.372;2023-05-08T03:20:23;99865.13;;;14.51;100.00
12897;BME280;6516;35.028;32.372;2023-05-08T03:22:55;99878.94;;;14.59;100.00
12897;BME280;6516;35.028;32.372;2023-05-08T03:25:24;99879.50;;;14.67;100.00
12897;BME280;6516;35.028;32.372;2023-05-08T03:27:53;99877.59;;;14.70;100.00
12897;BME280;6516;35.028;32.372;2023-05-08T03:30:23;99886.47;;;14.69;100.00
12897;BME280;6516;35.028;32.372;2023-05-08T03:32:52;99887.19;;;14.73;100.00
12897;BME280;6516;35.028;32.372;2023-05-08T03:35:21;99892.03;;;14.85;100.00
12897;BME280;6516;35.028;32.372;2023-05-08T03:37:49;99883.72;;;14.94;100.00
12897;BME280;6516;35.028;32.372;2023-05-08T03:40:19;99892.41;;;14.97;100.00
12897;BME280;6516;35.028;32.372;2023-05-08T03:42:47;99892.97;;;15.05;100.00
12897;BME280;6516;35.028;32.372;2023-05-08T03:45:16;99898.28;;;15.05;100.00
12897;BME280;6516;35.028;32.372;2023-05-08T03:47:45;99896.34;;;15.09;100.00
12897;BME280;6516;35.028;32.372;2023-05-08T03:50:14;99901.28;;;15.18;100.00
12897;BME280;6516;35.028;32.372;2023-05-08T03:52:42;99900.75;;;15.31;100.00
12897;BME280;6516;35.028;32.372;2023-05-08T03:55:10;99900.16;;;15.46;100.00
12897;BME280;6516;35.028;32.372;2023-05-08T03:57:47;99897.59;;;15.65;100.00
12897;BME280;6516;35.028;32.372;2023-05-08T04:00:23;99901.31;;;15.81;100.00
12897;BME280;6516;35.028;32.372;2023-05-08T04:03:08;99904.22;;;15.95;100.00
12897;BME280;6516;35.028;32.372;2023-05-08T04:05:47;99906.97;;;16.13;100.00
12897;BME280;6516;35.028;32.372;2023-05-08T04:08:22;99901.00;;;16.27;100.00
12897;BME280;6516;35.028;32.372;2023-05-08T04:10:58;99906.41;;;16.45;100.00
12897;BME280;6516;35.028;32.372;2023-05-08T04:13:38;99901.63;;;16.72;100.00
12897;BME280;6516;35.028;32.372;2023-05-08T04:16:14;99898.94;;;17.09;100.00
12897;BME280;6516;35.028;32.372;2023-05-08T04:18:46;99905.75;;;17.85;100.00
12897;BME280;6516;35.028;32.372;2023-05-08T04:21:18;99903.75;;;18.40;95.03
12897;BME280;6516;35.028;32.372;2023-05-08T04:23:50;99907.47;;;19.16;93.09
12897;BME280;6516;35.028;32.372;2023-05-08T04:26:18;99903.34;;;19.58;87.97
12897;BME280;6516;35.028;32.372;2023-05-08T04:28:48;99901.34;;;19.91;85.29
12897;BME280;6516;35.028;32.372;2023-05-08T04:31:16;99908.69;;;20.17;84.22
12897;BME280;6516;35.028;32.372;2023-05-08T04:33:46;99898.88;;;20.31;84.26
12897;BME280;6516;35.028;32.372;2023-05-08T04:36:14;99901.28;;;20.50;83.54
12897;BME280;6516;35.028;32.372;2023-05-08T04:38:42;99901.19;;;20.65;81.79
12897;BME280;6516;35.028;32.372;2023-05-08T04:41:10;99901.41;;;20.90;80.08
12897;BME280;6516;35.028;32.372;2023-05-08T04:43:37;99899.63;;;21.17;77.43
12897;BME280;6516;35.028;32.372;2023-05-08T04:46:07;99896.78;;;21.59;76.51
12897;BME280;6516;35.028;32.372;2023-05-08T04:48:35;99903.81;;;22.13;73.24
12897;BME280;6516;35.028;32.372;2023-05-08T04:51:03;99908.56;;;22.85;67.57
12897;BME280;6516;35.028;32.372;2023-05-08T04:53:31;99909.88;;;23.15;65.79
12897;BME280;6516;35.028;32.372;2023-05-08T04:55:59;99916.03;;;23.17;65.38
12897;BME280;6516;35.028;32.372;2023-05-08T04:58:26;99914.25;;;22.93;65.48
12897;BME280;6516;35.028;32.372;2023-05-08T05:00:54;99925.22;;;22.77;64.34
12897;BME280;6516;35.028;32.372;2023-05-08T05:03:24;99921.25;;;22.58;65.59
12897;BME280;6516;35.028;32.372;2023-05-08T05:05:56;99923.84;;;22.47;66.38
12897;BME280;6516;35.028;32.372;2023-05-08T05:08:24;99919.47;;;22.19;66.66
12897;BME280;6516;35.028;32.372;2023-05-08T05:10:52;99926.16;;;22.39;66.39
12897;BME280;6516;35.028;32.372;2023-05-08T05:13:20;99926.94;;;22.78;65.50
12897;BME280;6516;35.028;32.372;2023-05-08T05:15:48;99926.97;;;23.14;64.23
12897;BME280;6516;35.028;32.372;2023-05-08T05:18:19;99928.41;;;23.43;64.36
12897;BME280;6516;35.028;32.372;2023-05-08T05:20:48;99924.03;;;23.66;62.57
12897;BME280;6516;35.028;32.372;2023-05-08T05:23:16;99929.69;;;23.74;60.76
12897;BME280;6516;35.028;32.372;2023-05-08T05:25:43;99929.13;;;23.81;60.32
12897;BME280;6516;35.028;32.372;2023-05-08T05:28:11;99927.41;;;24.04;59.11
12897;BME280;6516;35.028;32.372;2023-05-08T05:30:39;99923.06;;;24.25;58.99
12897;BME280;6516;35.028;32.372;2023-05-08T05:33:07;99928.34;;;24.26;57.51
12897;BME280;6516;35.028;32.372;2023-05-08T05:35:34;99929.06;;;23.94;57.91
12897;BME280;6516;35.028;32.372;2023-05-08T05:38:03;99937.50;;;23.77;57.84
12897;BME280;6516;35.028;32.372;2023-05-08T05:40:31;99934.72;;;23.78;57.78
12897;BME280;6516;35.028;32.372;2023-05-08T05:42:59;99934.53;;;24.16;57.68
12897;BME280;6516;35.028;32.372;2023-05-08T05:45:27;99934.53;;;24.16;56.71
12897;BME280;6516;35.028;32.372;2023-05-08T05:47:54;99938.66;;;24.09;57.39
12897;BME280;6516;35.028;32.372;2023-05-08T05:50:22;99940.28;;;23.88;58.72
12897;BME280;6516;35.028;32.372;2023-05-08T05:52:51;99938.56;;;23.63;59.46
12897;BME280;6516;35.028;32.372;2023-05-08T05:57:48;99934.91;;;23.28;61.38
12897;BME280;6516;35.028;32.372;2023-05-08T06:00:16;99941.81;;;23.07;61.45
12897;BME280;6516;35.028;32.372;2023-05-08T06:02:45;99948.25;;;23.05;61.88
12897;BME280;6516;35.028;32.372;2023-05-08T06:05:13;99945.22;;;23.34;61.29
12897;BME280;6516;35.028;32.372;2023-05-08T06:07:41;99944.03;;;23.62;59.87
12897;BME280;6516;35.028;32.372;2023-05-08T06:10:09;99942.19;;;23.39;59.69
12897;BME280;6516;35.028;32.372;2023-05-08T06:12:39;99951.72;;;23.55;60.08
12897;BME280;6516;35.028;32.372;2023-05-08T06:15:08;99937.97;;;23.71;59.69
12897;BME280;6516;35.028;32.372;2023-05-08T06:17:36;99943.06;;;23.86;59.39
12897;BME280;6516;35.028;32.372;2023-05-08T06:20:05;99942.81;;;24.02;58.07
12897;BME280;6516;35.028;32.372;2023-05-08T06:22:33;99946.91;;;24.18;57.64
12897;BME280;6516;35.028;32.372;2023-05-08T06:25:02;99940.31;;;24.22;56.26
12897;BME280;6516;35.028;32.372;2023-05-08T06:27:32;99933.13;;;24.34;55.61
12897;BME280;6516;35.028;32.372;2023-05-08T06:30:01;99928.25;;;24.50;56.14
12897;BME280;6516;35.028;32.372;2023-05-08T06:32:32;99926.47;;;24.61;55.76
12897;BME280;6516;35.028;32.372;2023-05-08T06:35:00;99921.84;;;24.85;54.91
12897;BME280;6516;35.028;32.372;2023-05-08T06:37:28;99911.28;;;24.93;55.64
12897;BME280;6516;35.028;32.372;2023-05-08T06:39:56;99920.13;;;24.95;56.03
12897;BME280;6516;35.028;32.372;2023-05-08T06:42:24;99929.66;;;25.10;55.26
12897;BME280;6516;35.028;32.372;2023-05-08T06:44:52;99923.06;;;25.03;55.37
12897;BME280;6516;35.028;32.372;2023-05-08T06:47:21;99917.16;;;25.20;54.74
12897;BME280;6516;35.028;32.372;2023-05-08T06:49:49;99917.66;;;25.36;54.82
12897;BME280;6516;35.028;32.372;2023-05-08T06:52:18;99915.50;;;25.62;54.03
12897;BME280;6516;35.028;32.372;2023-05-08T06:54:48;99913.44;;;25.86;53.34
12897;BME280;6516;35.028;32.372;2023-05-08T06:57:16;99913.50;;;26.06;52.46
12897;BME280;6516;35.028;32.372;2023-05-08T06:59:43;99918.84;;;26.17;51.96
12897;BME280;6516;35.028;32.372;2023-05-08T07:02:11;99918.00;;;26.37;51.75
12897;BME280;6516;35.028;32.372;2023-05-08T07:04:42;99911.88;;;26.56;51.38
12897;BME280;6516;35.028;32.372;2023-05-08T07:07:10;99920.22;;;26.53;51.34
12897;BME280;6516;35.028;32.372;2023-05-08T07:09:38;99917.41;;;26.54;51.26
12897;BME280;6516;35.028;32.372;2023-05-08T07:12:06;99915.75;;;26.63;50.52
12897;BME280;6516;35.028;32.372;2023-05-08T07:14:34;99921.09;;;26.53;51.25
12897;BME280;6516;35.028;32.372;2023-05-08T07:17:03;99924.63;;;26.74;51.59
12897;BME280;6516;35.028;32.372;2023-05-08T07:19:32;99926.00;;;26.89;51.55
12897;BME280;6516;35.028;32.372;2023-05-08T07:22:02;99935.59;;;27.03;50.96
12897;BME280;6516;35.028;32.372;2023-05-08T07:24:30;99937.28;;;27.04;50.01
12897;BME280;6516;35.028;32.372;2023-05-08T07:26:58;99942.94;;;26.91;50.43
12897;BME280;6516;35.028;32.372;2023-05-08T07:29:25;99931.00;;;26.64;51.24
12897;BME280;6516;35.028;32.372;2023-05-08T07:31:53;99934.94;;;26.80;51.02
12897;BME280;6516;35.028;32.372;2023-05-08T07:34:21;99933.34;;;26.78;51.48
12897;BME280;6516;35.028;32.372;2023-05-08T07:36:49;99935.88;;;27.00;51.31
12897;BME280;6516;35.028;32.372;2023-05-08T07:39:18;99941.19;;;27.11;50.69
12897;BME280;6516;35.028;32.372;2023-05-08T07:41:46;99940.59;;;27.38;50.84
12897;BME280;6516;35.028;32.372;2023-05-08T07:44:14;99941.75;;;27.54;50.37
12897;BME280;6516;35.028;32.372;2023-05-08T07:46:42;99942.91;;;27.52;48.62
12897;BME280;6516;35.028;32.372;2023-05-08T07:49:10;99938.09;;;27.65;49.57
12897;BME280;6516;35.028;32.372;2023-05-08T07:51:37;99951.78;;;27.73;48.67
12897;BME280;6516;35.028;32.372;2023-05-08T07:54:06;99945.41;;;27.83;48.27
12897;BME280;6516;35.028;32.372;2023-05-08T07:56:35;99941.84;;;28.02;47.62
12897;BME280;6516;35.028;32.372;2023-05-08T07:59:03;99940.31;;;28.09;46.90
12897;BME280;6516;35.028;32.372;2023-05-08T08:01:31;99932.56;;;28.33;47.14
12897;BME280;6516;35.028;32.372;2023-05-08T08:03:58;99934.88;;;28.28;45.74
12897;BME280;6516;35.028;32.372;2023-05-08T08:06:26;99934.44;;;28.42;46.60
12897;BME280;6516;35.028;32.372;2023-05-08T08:08:55;99937.03;;;28.34;46.99
12897;BME280;6516;35.028;32.372;2023-05-08T08:11:22;99935.44;;;28.31;46.99
12897;BME280;6516;35.028;32.372;2023-05-08T08:13:52;99934.16;;;28.45;47.06
12897;BME280;6516;35.028;32.372;2023-05-08T08:16:19;99926.88;;;28.36;47.55
12897;BME280;6516;35.028;32.372;2023-05-08T08:18:47;99942.44;;;28.15;47.14
12897;BME280;6516;35.028;32.372;2023-05-08T08:21:17;99936.47;;;28.21;47.57
12897;BME280;6516;35.028;32.372;2023-05-08T08:23:45;99930.72;;;28.24;48.42
12897;BME280;6516;35.028;32.372;2023-05-08T08:26:13;99933.63;;;28.41;47.45
12897;BME280;6516;35.028;32.372;2023-05-08T08:28:41;99938.31;;;28.49;47.56
12897;BME280;6516;35.028;32.372;2023-05-08T08:31:10;99933.00;;;28.38;47.66
12897;BME280;6516;35.028;32.372;2023-05-08T08:33:38;99931.28;;;28.37;47.53
12897;BME280;6516;35.028;32.372;2023-05-08T08:36:12;99928.03;;;28.52;47.45
12897;BME280;6516;35.028;32.372;2023-05-08T08:38:39;99927.19;;;28.52;46.50
12897;BME280;6516;35.028;32.372;2023-05-08T08:41:07;99925.44;;;28.51;46.38
12897;BME280;6516;35.028;32.372;2023-05-08T08:43:35;99924.16;;;28.26;46.54
12897;BME280;6516;35.028;32.372;2023-05-08T08:46:11;99924.19;;;28.36;46.41
12897;BME280;6516;35.028;32.372;2023-05-08T08:48:43;99930.19;;;28.30;47.50
12897;BME280;6516;35.028;32.372;2023-05-08T08:51:17;99924.72;;;28.39;47.05
12897;BME280;6516;35.028;32.372;2023-05-08T08:54:02;99923.47;;;28.34;47.82
12897;BME280;6516;35.028;32.372;2023-05-08T08:56:31;99921.03;;;28.59;47.43
12897;BME280;6516;35.028;32.372;2023-05-08T08:58:59;99917.53;;;28.86;46.33
12897;BME280;6516;35.028;32.372;2023-05-08T09:01:33;99916.63;;;28.95;46.09
12897;BME280;6516;35.028;32.372;2023-05-08T09:04:02;99915.91;;;29.02;46.55
12897;BME280;6516;35.028;32.372;2023-05-08T09:06:30;99915.63;;;29.05;46.00
12897;BME280;6516;35.028;32.372;2023-05-08T09:09:02;99915.56;;;29.15;46.21
12897;BME280;6516;35.028;32.372;2023-05-08T09:11:30;99908.41;;;29.23;45.83
12897;BME280;6516;35.028;32.372;2023-05-08T09:13:58;99920.59;;;29.10;45.87
12897;BME280;6516;35.028;32.372;2023-05-08T09:16:27;99916.97;;;29.19;46.06
12897;BME280;6516;35.028;32.372;2023-05-08T09:18:56;99920.69;;;28.81;47.06
12897;BME280;6516;35.028;32.372;2023-05-08T09:21:24;99910.44;;;29.12;44.69
12897;BME280;6516;35.028;32.372;2023-05-08T09:23:57;99907.13;;;29.18;45.72
12897;BME280;6516;35.028;32.372;2023-05-08T09:26:29;99901.59;;;29.10;44.73
12897;BME280;6516;35.028;32.372;2023-05-08T09:29:11;99899.50;;;29.31;45.08
12897;BME280;6516;35.028;32.372;2023-05-08T09:31:41;99895.34;;;29.36;44.85
12897;BME280;6516;35.028;32.372;2023-05-08T09:34:20;99891.75;;;29.63;43.89
12897;BME280;6516;35.028;32.372;2023-05-08T09:36:49;99888.78;;;29.74;43.75
12897;BME280;6516;35.028;32.372;2023-05-08T09:39:21;99885.69;;;29.69;43.27
12897;BME280;6516;35.028;32.372;2023-05-08T09:41:56;99891.69;;;29.72;43.04
12897;BME280;6516;35.028;32.372;2023-05-08T09:44:25;99888.03;;;29.64;43.11
12897;BME280;6516;35.028;32.372;2023-05-08T09:47:09;99896.16;;;29.64;43.12
12897;BME280;6516;35.028;32.372;2023-05-08T09:49:39;99893.22;;;29.92;42.14
12897;BME280;6516;35.028;32.372;2023-05-08T09:52:07;99893.22;;;29.92;41.45
12897;BME280;6516;35.028;32.372;2023-05-08T09:54:35;99884.94;;;29.94;41.73
12897;BME280;6516;35.028;32.372;2023-05-08T09:57:10;99897.72;;;30.01;41.15
12897;BME280;6516;35.028;32.372;2023-05-08T09:59:39;99887.88;;;30.18;41.58
12897;BME280;6516;35.028;32.372;2023-05-08T10:02:10;99884.78;;;30.13;41.05
12897;BME280;6516;35.028;32.372;2023-05-08T10:04:42;99878.84;;;30.35;40.38
12897;BME280;6516;35.028;32.372;2023-05-08T10:07:10;99884.88;;;30.46;40.35
12897;BME280;6516;35.028;32.372;2023-05-08T10:09:38;99879.50;;;30.54;40.36
12897;BME280;6516;35.028;32.372;2023-05-08T10:12:06;99885.41;;;30.67;40.23
12897;BME280;6516;35.028;32.372;2023-05-08T10:14:34;99885.53;;;30.66;39.47
12897;BME280;6516;35.028;32.372;2023-05-08T10:17:06;99881.22;;;30.81;39.18
12897;BME280;6516;35.028;32.372;2023-05-08T10:19:37;99888.19;;;30.58;38.82
12897;BME280;6516;35.028;32.372;2023-05-08T10:22:10;99875.47;;;30.58;38.30
12897;BME280;6516;35.028;32.372;2023-05-08T10:24:40;99877.78;;;30.53;38.81
12897;BME280;6516;35.028;32.372;2023-05-08T10:27:12;99875.56;;;30.74;38.89
12897;BME280;6516;35.028;32.372;2023-05-08T10:29:49;99873.72;;;30.57;40.31
12897;BME280;6516;35.028;32.372;2023-05-08T10:32:19;99881.94;;;30.65;40.50
12897;BME280;6516;35.028;32.372;2023-05-08T10:34:52;99886.72;;;30.46;41.08
12897;BME280;6516;35.028;32.372;2023-05-08T10:37:23;99881.94;;;30.40;41.09
12897;BME280;6516;35.028;32.372;2023-05-08T10:39:51;99885.88;;;30.20;41.88
12897;BME280;6516;35.028;32.372;2023-05-08T10:42:21;99876.72;;;30.21;42.15
12897;BME280;6516;35.028;32.372;2023-05-08T10:44:49;99889.81;;;30.08;41.61
12897;BME280;6516;35.028;32.372;2023-05-08T10:47:21;99902.06;;;30.12;42.45
12897;BME280;6516;35.028;32.372;2023-05-08T10:50:00;99891.34;;;29.75;43.01
12897;BME280;6516;35.028;32.372;2023-05-08T10:52:34;99897.06;;;29.55;43.42
12897;BME280;6516;35.028;32.372;2023-05-08T10:55:19;99898.97;;;29.27;44.08
12897;BME280;6516;35.028;32.372;2023-05-08T10:58:02;99907.91;;;28.64;45.40
12897;BME280;6516;35.028;32.372;2023-05-08T11:03:47;99902.50;;;27.79;47.44
12897;BME280;6516;35.028;32.372;2023-05-08T11:06:45;99908.16;;;27.47;48.76
12897;BME280;6516;35.028;32.372;2023-05-08T11:09:19;99903.19;;;27.13;49.82
12897;BME280;6516;35.028;32.372;2023-05-08T11:12:02;99905.78;;;27.14;49.62
12897;BME280;6516;35.028;32.372;2023-05-08T11:14:33;99907.28;;;27.07;50.15
12897;BME280;6516;35.028;32.372;2023-05-08T11:17:08;99906.47;;;26.76;50.98
12897;BME280;6516;35.028;32.372;2023-05-08T11:19:37;99901.19;;;26.54;50.38
12897;BME280;6516;35.028;32.372;2023-05-08T11:22:13;99900.75;;;26.49;51.42
12897;BME280;6516;35.028;32.372;2023-05-08T11:24:52;99901.09;;;26.35;52.01
12897;BME280;6516;35.028;32.372;2023-05-08T11:27:38;99898.97;;;26.18;52.93
12897;BME280;6516;35.028;32.372;2023-05-08T11:30:32;99903.66;;;26.16;53.69
12897;BME280;6516;35.028;32.372;2023-05-08T11:33:16;99899.84;;;26.39;52.37
12897;BME280;6516;35.028;32.372;2023-05-08T11:35:52;99894.31;;;26.20;52.90
12897;BME280;6516;35.028;32.372;2023-05-08T11:38:25;99893.38;;;26.31;53.12
12897;BME280;6516;35.028;32.372;2023-05-08T11:40:57;99903.34;;;26.30;52.35
12897;BME280;6516;35.028;32.372;2023-05-08T11:43:32;99907.81;;;26.20;52.87
12897;BME280;6516;35.028;32.372;2023-05-08T11:46:35;99903.00;;;26.44;53.00
12897;BME280;6516;35.028;32.372;2023-05-08T11:49:12;99903.25;;;26.62;52.46
12897;BME280;6516;35.028;32.372;2023-05-08T11:51:41;99881.13;;;27.08;50.68
12897;BME280;6516;35.028;32.372;2023-05-08T11:54:16;99900.59;;;27.01;51.08
12897;BME280;6516;35.028;32.372;2023-05-08T11:56:45;99894.47;;;27.39;49.00
12897;BME280;6516;35.028;32.372;2023-05-08T11:59:17;99892.97;;;27.75;47.91
12897;BME280;6516;35.028;32.372;2023-05-08T12:01:47;99890.09;;;28.24;46.63
12897;BME280;6516;35.028;32.372;2023-05-08T12:04:15;99896.69;;;27.83;46.68
12897;BME280;6516;35.028;32.372;2023-05-08T12:06:43;99894.38;;;28.26;46.93
12897;BME280;6516;35.028;32.372;2023-05-08T12:09:15;99888.84;;;27.71;48.19
12897;BME280;6516;35.028;32.372;2023-05-08T12:11:45;99894.00;;;27.83;47.45
12897;BME280;6516;35.028;32.372;2023-05-08T12:14:16;99892.38;;;27.71;47.83
12897;BME280;6516;35.028;32.372;2023-05-08T12:16:44;99893.25;;;27.72;47.67
12897;BME280;6516;35.028;32.372;2023-05-08T12:19:12;99892.13;;;27.84;47.12
12897;BME280;6516;35.028;32.372;2023-05-08T12:21:45;99886.88;;;27.92;46.35
12897;BME280;6516;35.028;32.372;2023-05-08T12:24:16;99884.69;;;27.67;47.86
12897;BME280;6516;35.028;32.372;2023-05-08T12:26:47;99888.06;;;27.40;47.50
12897;BME280;6516;35.028;32.372;2023-05-08T12:29:18;99883.84;;;27.57;47.52
12897;BME280;6516;35.028;32.372;2023-05-08T12:31:46;99879.09;;;27.49;46.45
12897;BME280;6516;35.028;32.372;2023-05-08T12:34:15;99874.84;;;27.47;47.27
12897;BME280;6516;35.028;32.372;2023-05-08T12:36:43;99882.41;;;27.53;47.49
12897;BME280;6516;35.028;32.372;2023-05-08T12:39:12;99870.22;;;27.19;47.43
12897;BME280;6516;35.028;32.372;2023-05-08T12:41:46;99879.78;;;26.92;48.23
12897;BME280;6516;35.028;32.372;2023-05-08T12:44:19;99875.00;;;27.05;46.94
12897;BME280;6516;35.028;32.372;2023-05-08T12:46:49;99870.78;;;26.52;47.57
12897;BME280;6516;35.028;32.372;2023-05-08T12:49:25;99871.66;;;26.92;47.42
12897;BME280;6516;35.028;32.372;2023-05-08T12:52:00;99864.44;;;26.93;48.07
12897;BME280;6516;35.028;32.372;2023-05-08T12:54:33;99859.63;;;27.06;48.29
12897;BME280;6516;35.028;32.372;2023-05-08T12:57:08;99858.97;;;26.83;47.20
12897;BME280;6516;35.028;32.372;2023-05-08T12:59:37;99851.81;;;26.63;48.32
12897;BME280;6516;35.028;32.372;2023-05-08T13:02:11;99853.56;;;26.53;49.60
12897;BME280;6516;35.028;32.372;2023-05-08T13:04:40;99858.28;;;26.81;49.66
12897;BME280;6516;35.028;32.372;2023-05-08T13:07:07;99844.91;;;26.80;47.93
12897;BME280;6516;35.028;32.372;2023-05-08T13:09:35;99854.50;;;26.93;47.06
12897;BME280;6516;35.028;32.372;2023-05-08T13:12:04;99848.47;;;26.80;47.27
12897;BME280;6516;35.028;32.372;2023-05-08T13:14:34;99854.13;;;26.77;47.83
12897;BME280;6516;35.028;32.372;2023-05-08T13:17:02;99844.88;;;26.70;47.16
12897;BME280;6516;35.028;32.372;2023-05-08T13:19:29;99850.13;;;26.72;47.34
12897;BME280;6516;35.028;32.372;2023-05-08T13:21:57;99849.66;;;26.57;48.67
12897;BME280;6516;35.028;32.372;2023-05-08T13:24:25;99846.59;;;26.51;47.60
12897;BME280;6516;35.028;32.372;2023-05-08T13:26:52;99838.59;;;26.19;49.69
12897;BME280;6516;35.028;32.372;2023-05-08T13:29:21;99841.22;;;25.89;48.08